createdAt,value
2023-02-21T00:03:49.839Z,5.2
2023-02-21T00:08:57.778Z,5.2
2023-02-21T00:14:05.700Z,5.2
2023-02-21T00:19:13.653Z,5.1
2023-02-21T00:24:21.599Z,5.1
2023-02-21T00:29:29.523Z,5.1
2023-02-21T00:34:37.476Z,5.1
2023-02-21T00:39:43.564Z,5
2023-02-21T00:44:51.459Z,5
2023-02-21T00:49:59.392Z,5
2023-02-21T00:55:07.346Z,5
2023-02-21T01:00:15.264Z,5
2023-02-21T01:05:23.210Z,4.9
2023-02-21T01:10:31.187Z,4.9
2023-02-21T01:15:39.133Z,4.9
2023-02-21T01:20:47.052Z,4.9
2023-02-21T01:25:55.011Z,4.9
2023-02-21T01:31:03.003Z,4.8
2023-02-21T01:36:10.858Z,4.8
2023-02-21T01:41:18.842Z,4.8
2023-02-21T01:46:26.799Z,4.8
2023-02-21T01:51:34.710Z,4.8
2023-02-21T01:56:42.862Z,4.8
2023-02-21T02:01:50.621Z,4.7
2023-02-21T02:06:58.526Z,4.7
2023-02-21T02:12:06.542Z,4.7
2023-02-21T02:17:16.536Z,4.7
2023-02-21T02:22:22.365Z,4.7
2023-02-21T02:27:30.310Z,4.7
2023-02-21T02:32:38.254Z,4.7
2023-02-21T02:37:46.192Z,4.7
2023-02-21T02:42:54.528Z,4.6
2023-02-21T02:48:02.062Z,4.6
2023-02-21T02:53:10.001Z,4.6
2023-02-21T02:58:17.997Z,4.6
2023-02-21T03:03:25.937Z,4.6
2023-02-21T03:08:33.851Z,4.6
2023-02-21T03:13:41.798Z,4.6
2023-02-21T03:18:49.762Z,4.6
2023-02-21T03:23:57.670Z,4.6
2023-02-21T03:29:05.636Z,4.6
2023-02-21T03:34:13.568Z,4.6
2023-02-21T03:39:21.502Z,4.5
2023-02-21T03:44:29.462Z,4.5
2023-02-21T03:49:37.391Z,4.5
2023-02-21T03:54:43.531Z,4.5
2023-02-21T03:59:49.553Z,4.5
2023-02-21T04:04:55.607Z,4.5
2023-02-21T04:10:01.669Z,4.5
2023-02-21T04:15:07.753Z,4.5
2023-02-21T04:20:13.806Z,4.5
2023-02-21T04:25:19.871Z,4.5
2023-02-21T04:30:26.015Z,4.5
2023-02-21T04:35:32.014Z,4.5
2023-02-21T04:40:38.061Z,4.5
2023-02-21T04:45:44.250Z,4.5
2023-02-21T04:50:50.199Z,4.5
2023-02-21T04:55:56.253Z,4.5
2023-02-21T05:01:02.513Z,4.5
2023-02-21T05:06:08.412Z,4.4
2023-02-21T05:11:14.902Z,4.4
2023-02-21T05:16:20.647Z,4.4
2023-02-21T05:21:26.609Z,4.4
2023-02-21T05:26:32.759Z,4.4
2023-02-21T05:31:38.884Z,4.4
2023-02-21T05:36:46.704Z,4.4
2023-02-21T05:41:54.649Z,4.4
2023-02-21T05:47:02.604Z,4.4
2023-02-21T05:52:10.507Z,4.4
2023-02-21T05:57:18.450Z,4.4
2023-02-21T06:02:26.457Z,4.4
2023-02-21T06:07:34.340Z,4.4
2023-02-21T06:12:42.291Z,4.4
2023-02-21T06:17:50.234Z,4.4
2023-02-21T06:22:58.174Z,4.4
2023-02-21T06:28:06.113Z,4.4
2023-02-21T06:33:14.086Z,4.4
2023-02-21T06:38:22.045Z,4.4
2023-02-21T06:43:29.946Z,4.4
2023-02-21T06:48:37.934Z,4.4
2023-02-21T06:53:45.839Z,4.4
2023-02-21T06:58:53.777Z,4.4
2023-02-21T07:04:01.758Z,4.4
2023-02-21T07:09:09.661Z,4.4
2023-02-21T07:14:17.620Z,4.4
2023-02-21T07:19:25.564Z,4.4
2023-02-21T07:24:35.713Z,4.4
2023-02-21T07:29:41.448Z,4.4
2023-02-21T07:34:49.404Z,4.4
2023-02-21T07:39:57.313Z,4.4
2023-02-21T07:45:05.275Z,4.4
2023-02-21T07:55:21.180Z,4.4
2023-02-21T08:00:29.115Z,4.4
2023-02-21T08:05:37.033Z,4.4
2023-02-21T08:10:45.025Z,4.4
2023-02-21T08:15:52.990Z,4.4
2023-02-21T08:21:00.871Z,4.4
2023-02-21T08:26:08.843Z,4.4
2023-02-21T08:31:17.119Z,4.4
2023-02-21T08:36:24.697Z,4.4
2023-02-21T08:41:32.968Z,4.5
2023-02-21T08:46:40.686Z,4.5
2023-02-21T08:51:48.524Z,4.5
2023-02-21T08:56:56.493Z,4.6
2023-02-21T09:02:04.437Z,4.6
2023-02-21T09:07:12.368Z,4.6
2023-02-21T09:12:20.347Z,4.8
2023-02-21T09:17:28.262Z,4.8
2023-02-21T09:22:36.198Z,4.8
2023-02-21T09:27:44.169Z,4.8
2023-02-21T09:32:52.077Z,4.9
2023-02-21T09:38:00.016Z,4.9
2023-02-21T09:43:07.998Z,4.9
2023-02-21T09:48:14.031Z,5
2023-02-21T09:53:20.092Z,5
2023-02-21T09:58:26.181Z,5
2023-02-21T10:03:32.230Z,5.1
2023-02-21T10:08:40.160Z,5.1
2023-02-21T10:13:46.253Z,5.2
2023-02-21T10:18:52.302Z,5.3
2023-02-21T10:23:58.382Z,5.3
2023-02-21T10:29:04.478Z,5.4
2023-02-21T10:34:10.499Z,5.4
2023-02-21T10:39:16.584Z,5.4
2023-02-21T10:44:22.791Z,5.5
2023-02-21T10:49:28.705Z,5.5
2023-02-21T10:54:35.453Z,5.5
2023-02-21T10:59:40.867Z,5.6
2023-02-21T11:04:46.932Z,5.7
2023-02-21T11:09:52.974Z,5.8
2023-02-21T11:14:59.080Z,5.9
2023-02-21T11:20:06.976Z,6
2023-02-21T11:25:13.052Z,6
2023-02-21T11:30:19.191Z,6.1
2023-02-21T11:35:25.258Z,6.3
2023-02-21T11:40:31.264Z,6.3
2023-02-21T11:45:37.343Z,6.4
2023-02-21T11:55:51.343Z,6.7
2023-02-21T12:00:57.421Z,6.8
2023-02-21T12:06:03.589Z,6.8
2023-02-21T12:11:09.541Z,6.9
2023-02-21T12:16:15.658Z,7.1
2023-02-21T12:21:21.689Z,7.2
2023-02-21T12:26:27.738Z,7.3
2023-02-21T12:31:35.887Z,7.5
2023-02-21T12:36:41.732Z,7.6
2023-02-21T12:41:47.817Z,7.7
2023-02-21T12:46:55.759Z,7.9
2023-02-21T12:52:03.707Z,8
2023-02-21T12:57:11.636Z,8.1
2023-02-21T13:02:17.728Z,8.3
2023-02-21T13:07:23.769Z,8.4
2023-02-21T13:12:29.836Z,8.7
2023-02-21T13:17:35.920Z,8.8
2023-02-21T13:22:41.948Z,8.9
2023-02-21T13:27:48.014Z,9
2023-02-21T13:32:54.151Z,9.1
2023-02-21T13:38:00.157Z,9.3
2023-02-21T13:43:08.106Z,9.4
2023-02-21T13:48:14.208Z,9.6
2023-02-21T13:53:20.236Z,9.7
2023-02-21T13:58:26.300Z,9.8
2023-02-21T14:03:32.387Z,10
2023-02-21T14:08:38.411Z,10.1
2023-02-21T14:13:44.498Z,10.2
2023-02-21T14:18:50.647Z,10.3
2023-02-21T14:23:56.628Z,10.4
2023-02-21T14:29:02.681Z,10.5
2023-02-21T14:34:08.782Z,10.6
2023-02-21T14:39:14.826Z,10.7
2023-02-21T14:44:20.863Z,10.8
2023-02-21T14:49:26.963Z,10.9
2023-02-21T14:54:34.868Z,11
2023-02-21T14:59:40.932Z,11
2023-02-21T15:04:47.037Z,11.1
2023-02-21T15:09:53.088Z,11.2
2023-02-21T15:14:59.140Z,11.2
2023-02-21T15:20:05.283Z,11.2
2023-02-21T15:25:11.268Z,11.2
2023-02-21T15:30:17.429Z,11.3
2023-02-21T15:35:23.423Z,11.4
2023-02-21T15:40:29.488Z,11.3
2023-02-21T15:45:35.539Z,11.4
2023-02-21T15:50:41.615Z,11.4
2023-02-21T15:55:47.665Z,11.4
2023-02-21T16:00:53.814Z,11.4
2023-02-21T16:06:01.677Z,11.4
2023-02-21T16:11:09.588Z,11.3
2023-02-21T16:16:17.531Z,11.3
2023-02-21T16:21:25.521Z,11.3
2023-02-21T16:26:33.438Z,11.2
2023-02-21T16:31:41.518Z,11.2
2023-02-21T16:36:49.347Z,11
2023-02-21T16:41:57.247Z,11
2023-02-21T16:47:05.182Z,11
2023-02-21T16:52:13.155Z,10.9
2023-02-21T16:57:21.059Z,10.8
2023-02-21T17:02:29.036Z,10.7
2023-02-21T17:07:36.991Z,10.6
2023-02-21T17:12:44.886Z,10.6
2023-02-21T17:17:53.993Z,10.5
2023-02-21T17:23:00.798Z,10.4
2023-02-21T17:28:08.681Z,10.4
2023-02-21T17:33:16.632Z,10.2
2023-02-21T17:38:24.613Z,10.1
2023-02-21T17:43:32.561Z,10
2023-02-21T17:48:38.587Z,9.8
2023-02-21T17:53:46.547Z,9.8
2023-02-21T17:58:54.457Z,9.7
2023-02-21T18:04:02.398Z,9.6
2023-02-21T18:09:10.344Z,9.5
2023-02-21T18:14:18.273Z,9.4
2023-02-21T18:19:26.217Z,9.4
2023-02-21T18:24:34.183Z,9.3
2023-02-21T18:29:42.147Z,9.1
2023-02-21T18:34:50.040Z,9
2023-02-21T18:39:58.004Z,8.9
2023-02-21T18:45:05.927Z,8.7
2023-02-21T18:50:13.864Z,8.7
2023-02-21T18:55:21.848Z,8.6
2023-02-21T19:00:29.773Z,8.5
2023-02-21T19:05:37.691Z,8.4
2023-02-21T19:10:45.647Z,8.2
2023-02-21T19:15:53.596Z,8.2
2023-02-21T19:21:01.557Z,8.1
2023-02-21T19:26:09.483Z,7.9
2023-02-21T19:36:25.363Z,7.7
2023-02-21T19:41:33.319Z,7.6
2023-02-21T19:46:39.340Z,7.6
2023-02-21T19:51:45.418Z,7.5
2023-02-21T19:56:51.532Z,7.4
2023-02-21T20:01:57.543Z,7.3
2023-02-21T20:07:03.615Z,7.3
2023-02-21T20:12:09.703Z,7.1
2023-02-21T20:17:15.732Z,7
2023-02-21T20:22:21.815Z,6.9
2023-02-21T20:27:27.898Z,6.9
2023-02-21T20:32:34.120Z,6.8
2023-02-21T20:37:40.074Z,6.7
2023-02-21T20:42:46.094Z,6.7
2023-02-21T20:47:52.149Z,6.6
2023-02-21T20:53:00.080Z,6.6
2023-02-21T20:58:06.172Z,6.5
2023-02-21T21:03:12.220Z,6.5
2023-02-21T21:08:18.297Z,6.4
2023-02-21T21:13:24.383Z,6.3
2023-02-21T21:18:30.416Z,6.3
2023-02-21T21:23:38.362Z,6.2
2023-02-21T21:28:46.325Z,6.1
2023-02-21T21:33:54.260Z,6.1
2023-02-21T21:39:02.196Z,6
2023-02-21T21:44:10.211Z,6
2023-02-21T21:49:18.118Z,5.9
2023-02-21T21:54:26.010Z,5.9
2023-02-21T21:59:34.257Z,5.8
2023-02-21T22:04:41.968Z,5.8
2023-02-21T22:09:49.824Z,5.7
2023-02-21T22:14:57.802Z,5.8
2023-02-21T22:20:05.720Z,5.8
2023-02-21T22:25:13.663Z,5.7
2023-02-21T22:30:21.699Z,5.7
2023-02-21T22:35:29.554Z,5.7
2023-02-21T22:40:37.544Z,5.6
2023-02-21T22:45:45.457Z,5.6
2023-02-21T22:50:53.378Z,5.6
2023-02-21T22:56:01.317Z,5.5
2023-02-21T23:01:09.277Z,5.5
2023-02-21T23:06:17.203Z,5.5
2023-02-21T23:11:25.149Z,5.5
2023-02-21T23:16:33.163Z,5.4
2023-02-21T23:21:41.060Z,5.4
2023-02-21T23:26:49.018Z,5.4
2023-02-21T23:31:57.125Z,5.3
2023-02-21T23:37:04.876Z,5.4
2023-02-21T23:42:12.811Z,5.3
2023-02-21T23:47:20.767Z,5.3
2023-02-21T23:52:28.692Z,5.3
2023-02-21T23:57:36.666Z,5.3
